createdAt,value
2023-02-15T00:01:49.868Z,7.70
2023-02-15T00:04:20.015Z,8.40
2023-02-15T00:06:47.336Z,7.73
2023-02-15T00:09:14.128Z,7.90
2023-02-15T00:11:41.970Z,7.83
2023-02-15T00:14:11.576Z,7.47
2023-02-15T00:16:41.231Z,7.57
2023-02-15T00:19:13.046Z,7.87
2023-02-15T00:21:42.278Z,8.17
2023-02-15T00:24:11.509Z,7.57
2023-02-15T00:26:40.839Z,7.33
2023-02-15T00:29:08.337Z,7.93
2023-02-15T00:31:36.502Z,7.77
2023-02-15T00:34:12.714Z,8.00
2023-02-15T00:36:53.737Z,7.60
2023-02-15T00:39:28.751Z,8.23
2023-02-15T00:42:01.941Z,7.70
2023-02-15T00:44:36.246Z,8.17
2023-02-15T00:47:10.912Z,7.47
2023-02-15T00:50:06.400Z,7.13
2023-02-15T00:52:39.081Z,7.47
2023-02-15T00:55:09.096Z,7.83
2023-02-15T00:57:35.706Z,7.90
2023-02-15T01:00:02.619Z,7.77
2023-02-15T01:02:29.486Z,8.20
2023-02-15T01:04:56.270Z,8.30
2023-02-15T01:07:23.046Z,7.50
2023-02-15T01:09:49.945Z,7.57
2023-02-15T01:12:16.690Z,8.10
2023-02-15T01:14:43.569Z,8.13
2023-02-15T01:17:10.483Z,7.90
2023-02-15T01:19:38.970Z,8.73
2023-02-15T01:22:06.960Z,7.67
2023-02-15T01:24:35.813Z,7.93
2023-02-15T01:27:02.767Z,8.13
2023-02-15T01:29:31.287Z,9.07
2023-02-15T01:31:58.787Z,8.20
2023-02-15T01:34:25.551Z,8.37
2023-02-15T01:36:52.243Z,8.50
2023-02-15T01:39:19.099Z,7.80
2023-02-15T01:41:45.882Z,7.97
2023-02-15T01:44:46.786Z,8.20
2023-02-15T01:47:23.839Z,8.00
2023-02-15T01:50:01.139Z,7.77
2023-02-15T01:52:28.545Z,8.47
2023-02-15T01:54:55.465Z,7.73
2023-02-15T01:57:27.790Z,7.87
2023-02-15T01:59:57.689Z,7.80
2023-02-15T02:02:24.675Z,7.50
2023-02-15T02:04:57.767Z,7.97
2023-02-15T02:07:29.510Z,7.60
2023-02-15T02:09:56.134Z,8.17
2023-02-15T02:12:26.583Z,8.87
2023-02-15T02:14:54.465Z,8.20
2023-02-15T02:17:45.618Z,8.30
2023-02-15T02:20:45.160Z,7.90
2023-02-15T02:23:39.152Z,7.90
2023-02-15T02:26:05.790Z,8.27
2023-02-15T02:29:01.582Z,8.43
2023-02-15T02:31:50.062Z,8.03
2023-02-15T02:34:30.162Z,8.37
2023-02-15T02:37:18.102Z,8.07
2023-02-15T02:40:00.493Z,7.77
2023-02-15T02:42:51.605Z,8.57
2023-02-15T02:45:30.156Z,8.67
2023-02-15T02:48:20.888Z,8.23
2023-02-15T02:50:49.520Z,8.43
2023-02-15T02:53:16.856Z,9.10
2023-02-15T02:55:47.094Z,8.97
2023-02-15T02:58:35.941Z,8.03
2023-02-15T03:01:13.798Z,8.53
2023-02-15T03:03:46.972Z,8.50
2023-02-15T03:06:20.055Z,8.47
2023-02-15T03:08:51.056Z,8.40
2023-02-15T03:11:18.332Z,8.97
2023-02-15T03:13:48.483Z,9.13
2023-02-15T03:16:19.045Z,9.00
2023-02-15T03:18:56.747Z,8.60
2023-02-15T03:21:31.103Z,8.20
2023-02-15T03:24:23.547Z,9.00
2023-02-15T03:26:52.815Z,9.60
2023-02-15T03:29:23.058Z,9.33
2023-02-15T03:31:58.539Z,9.30
2023-02-15T03:34:25.614Z,9.63
2023-02-15T03:37:12.525Z,9.23
2023-02-15T03:40:24.520Z,8.93
2023-02-15T03:43:09.803Z,9.13
2023-02-15T03:45:39.302Z,9.53
2023-02-15T03:48:07.292Z,9.10
2023-02-15T03:50:38.276Z,9.93
2023-02-15T03:53:08.735Z,9.73
2023-02-15T03:55:36.718Z,9.53
2023-02-15T03:58:04.444Z,9.93
2023-02-15T04:00:33.983Z,9.60
2023-02-15T04:03:23.770Z,9.80
2023-02-15T04:05:50.533Z,9.90
2023-02-15T04:08:17.171Z,9.13
2023-02-15T04:10:44.027Z,9.67
2023-02-15T04:13:10.630Z,10.30
2023-02-15T04:15:37.300Z,9.83
2023-02-15T04:18:04.455Z,9.50
2023-02-15T04:20:31.252Z,9.80
2023-02-15T04:22:57.961Z,9.70
2023-02-15T04:25:24.842Z,9.07
2023-02-15T04:27:54.066Z,10.83
2023-02-15T04:30:23.660Z,9.70
2023-02-15T04:32:50.340Z,10.33
2023-02-15T04:35:17.290Z,9.57
2023-02-15T04:37:44.946Z,9.83
2023-02-15T04:40:14.040Z,10.33
2023-02-15T04:42:41.012Z,9.80
2023-02-15T04:45:08.611Z,10.47
2023-02-15T04:47:35.351Z,10.93
2023-02-15T04:50:02.036Z,10.10
2023-02-15T04:52:28.686Z,9.47
2023-02-15T04:54:56.147Z,11.10
2023-02-15T04:57:22.714Z,10.23
2023-02-15T04:59:49.392Z,10.27
2023-02-15T05:02:16.091Z,10.57
2023-02-15T05:04:42.992Z,9.60
2023-02-15T05:07:09.621Z,10.20
2023-02-15T05:09:36.583Z,9.37
2023-02-15T05:12:03.280Z,10.47
2023-02-15T05:14:29.956Z,9.77
2023-02-15T05:16:57.051Z,9.47
2023-02-15T05:19:23.818Z,10.10
2023-02-15T05:21:50.556Z,10.10
2023-02-15T05:24:17.468Z,9.13
2023-02-15T05:26:44.072Z,10.27
2023-02-15T05:29:11.759Z,10.57
2023-02-15T05:31:39.153Z,10.30
2023-02-15T05:34:06.206Z,9.73
2023-02-15T05:36:32.788Z,9.87
2023-02-15T05:38:59.489Z,9.70
2023-02-15T05:41:26.066Z,10.37
2023-02-15T05:43:52.729Z,10.27
2023-02-15T05:46:19.479Z,10.27
2023-02-15T05:48:46.273Z,9.30
2023-02-15T05:51:14.249Z,9.60
2023-02-15T05:53:41.535Z,9.70
2023-02-15T05:56:10.462Z,9.47
2023-02-15T05:58:42.679Z,10.47
2023-02-15T06:01:15.410Z,10.47
2023-02-15T06:03:42.336Z,9.73
2023-02-15T06:06:09.194Z,10.07
2023-02-15T06:08:36.831Z,9.77
2023-02-15T06:11:03.671Z,9.80
2023-02-15T06:13:30.801Z,10.00
2023-02-15T06:15:57.452Z,10.23
2023-02-15T06:18:24.476Z,9.93
2023-02-15T06:20:51.369Z,10.40
2023-02-15T06:23:18.613Z,9.77
2023-02-15T06:25:46.888Z,9.80
2023-02-15T06:28:14.810Z,10.20
2023-02-15T06:30:41.473Z,9.87
2023-02-15T06:33:08.322Z,9.70
2023-02-15T06:35:34.940Z,9.83
2023-02-15T06:38:01.591Z,10.10
2023-02-15T06:40:28.168Z,10.07
2023-02-15T06:42:55.015Z,9.87
2023-02-15T06:45:21.833Z,10.47
2023-02-15T06:47:48.533Z,10.10
2023-02-15T06:50:15.178Z,9.97
2023-02-15T06:52:41.819Z,9.80
2023-02-15T06:55:08.603Z,9.83
2023-02-15T06:57:35.281Z,9.00
2023-02-15T07:00:01.983Z,9.50
2023-02-15T07:02:28.974Z,9.60
2023-02-15T07:04:56.050Z,9.50
2023-02-15T07:07:22.912Z,9.33
2023-02-15T07:09:49.623Z,9.27
2023-02-15T07:12:16.679Z,9.23
2023-02-15T07:14:43.297Z,8.90
2023-02-15T07:17:27.448Z,8.57
2023-02-15T07:19:57.077Z,8.93
2023-02-15T07:22:23.741Z,9.10
2023-02-15T07:24:50.393Z,8.67
2023-02-15T07:27:17.107Z,8.60
2023-02-15T07:29:43.773Z,9.43
2023-02-15T07:32:10.424Z,10.23
2023-02-15T07:34:37.138Z,9.20
2023-02-15T07:37:03.854Z,9.27
2023-02-15T07:39:30.812Z,10.03
2023-02-15T07:41:57.498Z,9.33
2023-02-15T07:44:30.647Z,8.50
2023-02-15T07:46:57.270Z,9.00
2023-02-15T07:49:26.068Z,9.07
2023-02-15T07:51:52.879Z,8.87
2023-02-15T07:57:21.435Z,8.27
2023-02-15T07:59:51.838Z,8.70
2023-02-15T08:02:18.963Z,8.10
2023-02-15T08:04:45.619Z,7.53
2023-02-15T08:07:12.511Z,7.20
2023-02-15T08:09:41.151Z,6.97
2023-02-15T08:12:10.555Z,7.13
2023-02-15T08:14:37.931Z,6.30
2023-02-15T08:17:04.667Z,6.87
2023-02-15T08:19:33.392Z,7.73
2023-02-15T08:22:02.845Z,6.30
2023-02-15T08:24:32.267Z,6.43
2023-02-15T08:26:59.520Z,6.57
2023-02-15T08:29:30.969Z,6.33
2023-02-15T08:32:03.401Z,5.90
2023-02-15T08:34:32.574Z,5.77
2023-02-15T08:36:59.496Z,5.70
2023-02-15T08:39:26.333Z,6.17
2023-02-15T08:41:53.407Z,5.57
2023-02-15T08:44:20.879Z,5.67
2023-02-15T08:46:49.744Z,5.70
2023-02-15T08:49:19.074Z,5.17
2023-02-15T08:51:47.080Z,5.80
2023-02-15T08:54:16.236Z,5.83
2023-02-15T08:56:44.444Z,5.67
2023-02-15T08:59:22.972Z,6.60
2023-02-15T09:01:51.545Z,5.83
2023-02-15T09:04:19.012Z,6.30
2023-02-15T09:06:49.082Z,6.37
2023-02-15T09:09:17.965Z,6.07
2023-02-15T09:11:47.358Z,5.97
2023-02-15T09:14:18.120Z,5.80
2023-02-15T09:20:02.190Z,5.43
2023-02-15T09:22:31.620Z,5.77
2023-02-15T09:25:00.821Z,5.50
2023-02-15T09:27:29.826Z,6.00
2023-02-15T09:29:56.845Z,5.57
2023-02-15T09:32:26.306Z,6.00
2023-02-15T09:35:01.006Z,6.17
2023-02-15T09:37:28.794Z,6.03
2023-02-15T09:39:56.484Z,6.17
2023-02-15T09:42:31.200Z,6.10
2023-02-15T09:45:10.076Z,5.43
2023-02-15T09:47:54.451Z,5.70
2023-02-15T09:50:42.763Z,5.47
2023-02-15T09:53:31.333Z,5.60
2023-02-15T09:56:23.842Z,5.43
2023-02-15T09:59:18.732Z,4.87
2023-02-15T10:02:13.616Z,4.57
2023-02-15T10:05:20.996Z,4.40
2023-02-15T10:08:24.633Z,4.60
2023-02-15T10:17:45.212Z,4.07
2023-02-15T10:20:59.199Z,3.93
2023-02-15T10:23:45.720Z,4.00
2023-02-15T10:26:16.607Z,3.97
2023-02-15T10:32:07.850Z,3.87
2023-02-15T10:34:57.267Z,3.67
2023-02-15T10:37:55.034Z,3.50
2023-02-15T10:40:30.718Z,3.57
2023-02-15T10:43:42.110Z,4.23
2023-02-15T10:46:39.793Z,3.80
2023-02-15T10:49:14.885Z,3.70
2023-02-15T10:52:08.449Z,4.00
2023-02-15T10:54:44.216Z,3.60
2023-02-15T10:57:28.214Z,3.60
2023-02-15T10:59:57.640Z,3.57
2023-02-15T11:02:44.501Z,3.63
2023-02-15T11:05:35.284Z,4.00
2023-02-15T11:08:06.973Z,3.83
2023-02-15T11:10:40.200Z,3.97
2023-02-15T11:13:14.360Z,3.70
2023-02-15T11:16:03.272Z,3.53
2023-02-15T11:18:41.420Z,3.63
2023-02-15T11:21:14.697Z,3.30
2023-02-15T11:23:44.982Z,3.70
2023-02-15T11:26:22.997Z,3.97
2023-02-15T11:28:56.326Z,4.40
2023-02-15T11:31:25.798Z,3.70
2023-02-15T11:34:01.128Z,4.03
2023-02-15T11:36:39.409Z,3.63
2023-02-15T11:39:12.851Z,3.90
2023-02-15T11:41:53.623Z,3.80
2023-02-15T11:44:38.432Z,4.00
2023-02-15T11:47:12.169Z,4.70
2023-02-15T11:49:39.352Z,4.57
2023-02-15T11:52:08.513Z,4.40
2023-02-15T11:54:37.887Z,4.57
2023-02-15T11:57:18.937Z,4.13
2023-02-15T11:59:53.660Z,4.20
2023-02-15T12:02:22.911Z,3.90
2023-02-15T12:04:57.815Z,4.13
2023-02-15T12:07:29.467Z,3.97
2023-02-15T12:10:00.679Z,4.00
2023-02-15T12:12:29.182Z,4.10
2023-02-15T12:14:57.924Z,3.60
2023-02-15T12:17:28.836Z,4.27
2023-02-15T12:20:02.529Z,4.00
2023-02-15T12:22:33.475Z,4.07
2023-02-15T12:25:03.030Z,4.10
2023-02-15T12:27:33.041Z,3.93
2023-02-15T12:30:04.896Z,4.13
2023-02-15T12:32:36.244Z,4.00
2023-02-15T12:35:10.287Z,4.30
2023-02-15T12:37:37.111Z,4.30
2023-02-15T12:40:31.607Z,4.00
2023-02-15T12:42:58.821Z,4.00
2023-02-15T12:45:28.387Z,4.40
2023-02-15T12:48:19.856Z,4.10
2023-02-15T12:50:55.698Z,3.87
2023-02-15T12:53:34.176Z,4.07
2023-02-15T12:56:02.155Z,4.47
2023-02-15T12:58:29.560Z,4.20
2023-02-15T13:01:11.247Z,4.60
2023-02-15T13:03:57.779Z,4.50
2023-02-15T13:06:25.180Z,4.87
2023-02-15T13:08:54.752Z,4.40
2023-02-15T13:11:26.662Z,4.30
2023-02-15T13:13:56.390Z,4.80
2023-02-15T13:16:30.591Z,4.53
2023-02-15T13:18:59.681Z,4.70
2023-02-15T13:21:33.027Z,5.00
2023-02-15T13:24:08.529Z,5.43
2023-02-15T13:26:36.255Z,4.97
2023-02-15T13:29:30.784Z,5.00
2023-02-15T13:32:11.614Z,4.60
2023-02-15T13:34:40.813Z,5.13
2023-02-15T13:37:22.791Z,4.70
2023-02-15T13:40:00.238Z,5.10
2023-02-15T13:42:39.731Z,4.97
2023-02-15T13:45:30.443Z,5.37
2023-02-15T13:48:15.730Z,5.43
2023-02-15T13:50:48.668Z,5.10
2023-02-15T13:53:27.181Z,4.93
2023-02-15T13:56:00.339Z,5.43
2023-02-15T13:58:49.717Z,5.03
2023-02-15T14:01:28.320Z,5.10
2023-02-15T14:04:06.964Z,5.90
2023-02-15T14:06:53.012Z,5.47
2023-02-15T14:09:39.661Z,5.27
2023-02-15T14:12:30.479Z,5.10
2023-02-15T14:14:59.985Z,5.00
2023-02-15T14:18:00.404Z,5.90
2023-02-15T14:20:42.377Z,5.30
2023-02-15T14:23:57.372Z,5.57
2023-02-15T14:26:30.245Z,5.30
2023-02-15T14:28:56.854Z,5.80
2023-02-15T14:31:37.547Z,5.63
2023-02-15T14:34:04.222Z,6.20
2023-02-15T14:36:32.325Z,5.77
2023-02-15T14:39:27.151Z,5.53
2023-02-15T14:42:00.673Z,6.10
2023-02-15T14:44:37.563Z,6.00
2023-02-15T14:47:12.538Z,5.90
2023-02-15T14:49:40.996Z,6.90
2023-02-15T14:52:11.209Z,6.57
2023-02-15T14:54:37.860Z,7.10
2023-02-15T14:57:04.453Z,6.20
2023-02-15T14:59:51.164Z,6.00
2023-02-15T15:02:22.788Z,5.30
2023-02-15T15:05:09.218Z,5.77
2023-02-15T15:07:49.042Z,6.03
2023-02-15T15:10:18.382Z,6.10
2023-02-15T15:12:52.610Z,5.77
2023-02-15T15:15:28.620Z,6.50
2023-02-15T15:17:58.119Z,6.30
2023-02-15T15:20:27.681Z,6.37
2023-02-15T15:23:16.016Z,6.37
2023-02-15T15:25:59.183Z,5.93
2023-02-15T15:28:34.960Z,6.40
2023-02-15T15:31:06.868Z,6.50
2023-02-15T15:34:11.490Z,6.30
2023-02-15T15:37:03.324Z,6.63
2023-02-15T15:40:29.187Z,6.27
2023-02-15T15:43:25.046Z,6.10
2023-02-15T15:46:00.388Z,6.30
2023-02-15T15:48:36.272Z,6.27
2023-02-15T15:51:33.059Z,6.40
2023-02-15T15:54:02.662Z,6.33
2023-02-15T15:56:34.426Z,6.40
2023-02-15T15:59:08.472Z,6.73
2023-02-15T16:01:46.624Z,6.63
2023-02-15T16:04:22.876Z,6.20
2023-02-15T16:06:49.574Z,7.20
2023-02-15T16:09:24.947Z,6.63
2023-02-15T16:11:55.002Z,6.50
2023-02-15T16:14:37.101Z,6.77
2023-02-15T16:17:08.051Z,6.47
2023-02-15T16:19:40.980Z,6.83
2023-02-15T16:22:15.010Z,6.70
2023-02-15T16:25:18.717Z,6.53
2023-02-15T16:27:47.289Z,6.30
2023-02-15T16:30:36.451Z,6.73
2023-02-15T16:33:17.385Z,5.97
2023-02-15T16:35:57.653Z,6.77
2023-02-15T16:38:42.781Z,6.67
2023-02-15T16:41:13.553Z,6.73
2023-02-15T16:43:42.948Z,7.43
2023-02-15T16:46:16.899Z,7.90
2023-02-15T16:48:47.470Z,7.13
2023-02-15T16:51:25.341Z,7.50
2023-02-15T16:53:55.650Z,10.37
2023-02-15T16:56:29.355Z,8.47
2023-02-15T16:58:57.846Z,9.13
2023-02-15T17:01:28.421Z,8.57
2023-02-15T17:04:14.547Z,10.33
2023-02-15T17:06:41.514Z,9.37
2023-02-15T17:09:17.420Z,9.23
2023-02-15T17:11:45.032Z,9.10
2023-02-15T17:14:14.874Z,7.60
2023-02-15T17:16:55.854Z,8.60
2023-02-15T17:19:28.917Z,8.30
2023-02-15T17:22:02.457Z,8.47
2023-02-15T17:24:36.822Z,8.07
2023-02-15T17:27:10.186Z,7.83
2023-02-15T17:29:41.425Z,8.70
2023-02-15T17:32:17.757Z,8.40
2023-02-15T17:35:07.094Z,8.83
2023-02-15T17:37:36.931Z,8.97
2023-02-15T17:40:33.478Z,9.50
2023-02-15T17:43:00.581Z,8.67
2023-02-15T17:45:33.739Z,8.47
2023-02-15T17:48:04.019Z,8.97
2023-02-15T17:50:31.041Z,9.43
2023-02-15T17:52:58.778Z,9.27
2023-02-15T17:55:25.989Z,8.93
2023-02-15T17:57:52.612Z,9.67
2023-02-15T18:00:19.618Z,9.23
2023-02-15T18:02:47.029Z,9.80
2023-02-15T18:05:14.588Z,10.23
2023-02-15T18:07:41.190Z,9.37
2023-02-15T18:10:19.072Z,8.97
2023-02-15T18:12:45.743Z,10.63
2023-02-15T18:15:13.110Z,9.30
2023-02-15T18:17:45.575Z,9.07
2023-02-15T18:20:20.268Z,9.30
2023-02-15T18:22:47.410Z,9.10
2023-02-15T18:25:15.716Z,10.90
2023-02-15T18:27:42.530Z,9.43
2023-02-15T18:30:15.305Z,9.00
2023-02-15T18:32:42.715Z,9.30
2023-02-15T18:35:16.346Z,10.47
2023-02-15T18:37:43.454Z,9.43
2023-02-15T18:40:16.562Z,9.77
2023-02-15T18:42:43.470Z,9.30
2023-02-15T18:45:22.257Z,9.60
2023-02-15T18:47:49.202Z,9.50
2023-02-15T18:50:18.111Z,9.57
2023-02-15T18:52:50.567Z,9.30
2023-02-15T18:55:23.482Z,9.27
2023-02-15T18:57:52.666Z,9.97
2023-02-15T19:00:22.677Z,9.53
2023-02-15T19:02:49.378Z,8.97
2023-02-15T19:05:16.755Z,9.07
2023-02-15T19:07:44.565Z,9.80
2023-02-15T19:10:18.913Z,10.30
2023-02-15T19:12:45.786Z,10.50
2023-02-15T19:15:20.130Z,9.93
2023-02-15T19:17:47.070Z,10.33
2023-02-15T19:20:20.554Z,10.00
2023-02-15T19:22:49.024Z,9.57
2023-02-15T19:25:23.804Z,9.73
2023-02-15T19:27:51.640Z,9.83
2023-02-15T19:30:21.539Z,10.10
2023-02-15T19:32:48.344Z,10.33
2023-02-15T19:35:20.634Z,10.33
2023-02-15T19:37:50.081Z,9.60
2023-02-15T19:40:24.330Z,10.57
2023-02-15T19:42:51.518Z,10.27
2023-02-15T19:45:29.541Z,10.73
2023-02-15T19:47:56.619Z,10.30
2023-02-15T19:50:26.227Z,9.83
2023-02-15T19:52:53.163Z,10.03
2023-02-15T19:55:25.842Z,10.90
2023-02-15T19:57:53.848Z,11.30
2023-02-15T20:00:23.001Z,11.10
2023-02-15T20:02:49.830Z,11.43
2023-02-15T20:05:16.472Z,11.47
2023-02-15T20:07:46.879Z,10.53
2023-02-15T20:10:31.199Z,10.93
2023-02-15T20:12:58.496Z,11.20
2023-02-15T20:15:30.060Z,11.30
2023-02-15T20:17:58.936Z,11.10
2023-02-15T20:20:44.495Z,10.67
2023-02-15T20:23:17.478Z,10.73
2023-02-15T20:25:44.192Z,11.03
2023-02-15T20:28:24.080Z,11.07
2023-02-15T20:30:51.392Z,11.03
2023-02-15T20:33:19.383Z,11.03
2023-02-15T20:35:46.891Z,11.13
2023-02-15T20:38:26.038Z,10.53
2023-02-15T20:40:53.756Z,12.30
2023-02-15T20:43:20.367Z,10.17
2023-02-15T20:45:46.984Z,11.73
2023-02-15T20:48:13.789Z,10.97
2023-02-15T20:50:40.541Z,10.90
2023-02-15T20:53:09.774Z,10.97
2023-02-15T20:55:36.527Z,11.33
2023-02-15T20:58:13.139Z,11.60
2023-02-15T21:00:40.404Z,10.97
2023-02-15T21:03:12.147Z,10.40
2023-02-15T21:05:39.051Z,11.17
2023-02-15T21:08:13.839Z,11.47
2023-02-15T21:10:41.919Z,10.90
2023-02-15T21:13:22.255Z,11.60
2023-02-15T21:15:51.169Z,11.40
2023-02-15T21:18:24.386Z,11.37
2023-02-15T21:20:56.825Z,11.20
2023-02-15T21:23:26.004Z,11.50
2023-02-15T21:25:55.185Z,12.10
2023-02-15T21:28:26.599Z,12.00
2023-02-15T21:30:55.821Z,12.10
2023-02-15T21:33:22.448Z,11.90
2023-02-15T21:35:52.004Z,12.27
2023-02-15T21:38:21.554Z,12.27
2023-02-15T21:40:49.629Z,12.47
2023-02-15T21:43:25.342Z,11.80
2023-02-15T21:45:53.386Z,12.23
2023-02-15T21:48:20.078Z,12.17
2023-02-15T21:50:47.199Z,11.73
2023-02-15T21:53:21.152Z,12.60
2023-02-15T21:55:48.484Z,12.77
2023-02-15T21:58:19.876Z,12.77
2023-02-15T22:00:47.010Z,12.90
2023-02-15T22:03:13.735Z,12.33
2023-02-15T22:05:40.451Z,12.90
2023-02-15T22:08:13.743Z,14.07
2023-02-15T22:10:41.599Z,13.23
2023-02-15T22:13:24.999Z,12.60
2023-02-15T22:15:51.965Z,13.50
2023-02-15T22:18:22.030Z,12.77
2023-02-15T22:20:49.255Z,13.60
2023-02-15T22:23:15.927Z,13.27
2023-02-15T22:25:47.282Z,14.33
2023-02-15T22:28:14.138Z,13.03
2023-02-15T22:30:40.777Z,13.77
2023-02-15T22:33:21.254Z,14.30
2023-02-15T22:35:47.934Z,14.93
2023-02-15T22:38:14.627Z,14.33
2023-02-15T22:40:41.548Z,14.03
2023-02-15T22:43:19.995Z,14.37
2023-02-15T22:45:46.807Z,14.27
2023-02-15T22:48:17.968Z,14.70
2023-02-15T22:50:44.750Z,14.37
2023-02-15T22:53:11.339Z,15.10
2023-02-15T22:55:38.675Z,14.63
2023-02-15T22:58:07.007Z,14.37
2023-02-15T23:00:38.757Z,15.20
2023-02-15T23:03:21.399Z,14.80
2023-02-15T23:05:48.250Z,15.47
2023-02-15T23:08:15.208Z,14.87
2023-02-15T23:10:44.082Z,16.33
2023-02-15T23:13:26.882Z,15.27
2023-02-15T23:15:57.012Z,14.93
2023-02-15T23:18:23.588Z,15.43
2023-02-15T23:21:02.274Z,15.93
2023-02-15T23:23:33.121Z,15.93
2023-02-15T23:26:01.952Z,15.47
2023-02-15T23:28:35.237Z,16.00
2023-02-15T23:31:03.171Z,16.67
2023-02-15T23:33:33.432Z,16.83
2023-02-15T23:36:00.222Z,17.43
2023-02-15T23:38:29.645Z,17.17
2023-02-15T23:41:01.754Z,16.40
2023-02-15T23:43:28.617Z,16.80
2023-02-15T23:45:55.280Z,17.63
2023-02-15T23:48:40.352Z,16.50
2023-02-15T23:51:07.046Z,18.00
2023-02-15T23:53:33.642Z,17.93
2023-02-15T23:56:00.423Z,17.83
2023-02-15T23:58:34.643Z,18.87
